sensor_id;sensor_type;location;lat;lon;timestamp;temperature;humidity
4056;DHT22;2043;52.184;8.690;2023-11-21T00:02:21;7.30;99.90
4056;DHT22;2043;52.184;8.690;2023-11-21T00:04:48;7.20;99.90
4056;DHT22;2043;52.184;8.690;2023-11-21T00:07:15;7.30;99.90
4056;DHT22;2043;52.184;8.690;2023-11-21T00:12:09;7.40;99.90
4056;DHT22;2043;52.184;8.690;2023-11-21T00:17:07;7.50;99.90
4056;DHT22;2043;52.184;8.690;2023-11-21T00:19:34;7.50;99.90
4056;DHT22;2043;52.184;8.690;2023-11-21T00:22:01;7.50;99.90
4056;DHT22;2043;52.184;8.690;2023-11-21T00:24:28;7.60;99.90
4056;DHT22;2043;52.184;8.690;2023-11-21T00:31:49;7.70;99.90
4056;DHT22;2043;52.184;8.690;2023-11-21T00:34:16;7.60;99.90
4056;DHT22;2043;52.184;8.690;2023-11-21T00:36:43;7.60;99.90
4056;DHT22;2043;52.184;8.690;2023-11-21T00:39:10;7.60;99.90
4056;DHT22;2043;52.184;8.690;2023-11-21T00:41:38;7.60;99.90
4056;DHT22;2043;52.184;8.690;2023-11-21T00:46:33;7.80;99.90
4056;DHT22;2043;52.184;8.690;2023-11-21T00:49:00;7.70;99.90
4056;DHT22;2043;52.184;8.690;2023-11-21T00:56:22;7.70;99.90
4056;DHT22;2043;52.184;8.690;2023-11-21T00:58:49;7.60;99.90
4056;DHT22;2043;52.184;8.690;2023-11-21T01:01:20;7.70;99.90
4056;DHT22;2043;52.184;8.690;2023-11-21T01:03:49;7.70;99.90
4056;DHT22;2043;52.184;8.690;2023-11-21T01:08:46;7.70;99.90
4056;DHT22;2043;52.184;8.690;2023-11-21T01:13:41;7.80;99.90
4056;DHT22;2043;52.184;8.690;2023-11-21T01:16:09;7.90;99.90
4056;DHT22;2043;52.184;8.690;2023-11-21T01:18:36;7.90;99.90
4056;DHT22;2043;52.184;8.690;2023-11-21T01:21:03;7.80;99.90
4056;DHT22;2043;52.184;8.690;2023-11-21T01:23:30;7.90;99.90
4056;DHT22;2043;52.184;8.690;2023-11-21T01:25:57;8.00;99.90
4056;DHT22;2043;52.184;8.690;2023-11-21T01:33:19;8.00;99.90
4056;DHT22;2043;52.184;8.690;2023-11-21T01:35:46;8.00;99.90
4056;DHT22;2043;52.184;8.690;2023-11-21T01:38:13;8.00;99.90
4056;DHT22;2043;52.184;8.690;2023-11-21T01:40:41;8.00;99.90
4056;DHT22;2043;52.184;8.690;2023-11-21T01:43:08;8.10;99.90
4056;DHT22;2043;52.184;8.690;2023-11-21T01:45:35;8.10;99.90
4056;DHT22;2043;52.184;8.690;2023-11-21T01:48:02;8.10;99.90
4056;DHT22;2043;52.184;8.690;2023-11-21T01:50:30;8.10;99.90
4056;DHT22;2043;52.184;8.690;2023-11-21T01:52:57;8.10;99.90
4056;DHT22;2043;52.184;8.690;2023-11-21T01:55:24;8.20;99.90
4056;DHT22;2043;52.184;8.690;2023-11-21T01:57:58;8.20;99.90
4056;DHT22;2043;52.184;8.690;2023-11-21T02:02:54;8.20;99.90
4056;DHT22;2043;52.184;8.690;2023-11-21T02:05:21;8.10;99.90
4056;DHT22;2043;52.184;8.690;2023-11-21T02:07:48;8.20;99.90
4056;DHT22;2043;52.184;8.690;2023-11-21T02:10:15;8.20;99.90
4056;DHT22;2043;52.184;8.690;2023-11-21T02:12:44;8.30;99.90
4056;DHT22;2043;52.184;8.690;2023-11-21T02:15:13;8.30;99.90
4056;DHT22;2043;52.184;8.690;2023-11-21T02:20:22;8.30;99.90
4056;DHT22;2043;52.184;8.690;2023-11-21T02:22:53;8.30;99.90
4056;DHT22;2043;52.184;8.690;2023-11-21T02:25:29;8.30;99.90
4056;DHT22;2043;52.184;8.690;2023-11-21T02:27:58;8.40;99.90
4056;DHT22;2043;52.184;8.690;2023-11-21T02:30:25;8.40;99.90
4056;DHT22;2043;52.184;8.690;2023-11-21T02:32:52;8.30;99.90
4056;DHT22;2043;52.184;8.690;2023-11-21T02:35:24;8.20;99.90
4056;DHT22;2043;52.184;8.690;2023-11-21T02:37:53;8.30;99.90
4056;DHT22;2043;52.184;8.690;2023-11-21T02:40:20;8.40;99.90
4056;DHT22;2043;52.184;8.690;2023-11-21T02:42:47;8.40;99.90
4056;DHT22;2043;52.184;8.690;2023-11-21T02:45:15;8.40;99.90
4056;DHT22;2043;52.184;8.690;2023-11-21T02:47:45;8.40;99.90
4056;DHT22;2043;52.184;8.690;2023-11-21T02:50:12;8.30;99.90
4056;DHT22;2043;52.184;8.690;2023-11-21T02:52:39;8.30;99.90
4056;DHT22;2043;52.184;8.690;2023-11-21T02:55:06;8.30;99.90
4056;DHT22;2043;52.184;8.690;2023-11-21T02:57:36;8.30;99.90
4056;DHT22;2043;52.184;8.690;2023-11-21T03:00:03;8.20;99.90
4056;DHT22;2043;52.184;8.690;2023-11-21T03:02:34;8.30;99.90
4056;DHT22;2043;52.184;8.690;2023-11-21T03:05:07;8.30;99.90
4056;DHT22;2043;52.184;8.690;2023-11-21T03:07:39;8.20;99.90
4056;DHT22;2043;52.184;8.690;2023-11-21T03:10:08;8.20;99.90
4056;DHT22;2043;52.184;8.690;2023-11-21T03:12:41;8.30;99.90
4056;DHT22;2043;52.184;8.690;2023-11-21T03:15:08;8.40;99.90
4056;DHT22;2043;52.184;8.690;2023-11-21T03:17:37;8.40;99.90
4056;DHT22;2043;52.184;8.690;2023-11-21T03:20:05;8.40;99.90
4056;DHT22;2043;52.184;8.690;2023-11-21T03:27:27;8.50;99.90
4056;DHT22;2043;52.184;8.690;2023-11-21T03:29:53;8.50;99.90
4056;DHT22;2043;52.184;8.690;2023-11-21T03:34:56;8.50;99.90
4056;DHT22;2043;52.184;8.690;2023-11-21T03:37:23;8.50;99.90
4056;DHT22;2043;52.184;8.690;2023-11-21T03:39:51;8.40;99.90
4056;DHT22;2043;52.184;8.690;2023-11-21T03:42:18;8.50;99.90
4056;DHT22;2043;52.184;8.690;2023-11-21T03:44:45;8.50;99.90
4056;DHT22;2043;52.184;8.690;2023-11-21T03:47:12;8.50;99.90
4056;DHT22;2043;52.184;8.690;2023-11-21T03:49:39;8.50;99.90
4056;DHT22;2043;52.184;8.690;2023-11-21T03:52:06;8.50;99.90
4056;DHT22;2043;52.184;8.690;2023-11-21T03:54:34;8.50;99.90
4056;DHT22;2043;52.184;8.690;2023-11-21T03:57:01;8.40;99.90
4056;DHT22;2043;52.184;8.690;2023-11-21T03:59:27;8.50;99.90
4056;DHT22;2043;52.184;8.690;2023-11-21T04:01:57;8.40;99.90
4056;DHT22;2043;52.184;8.690;2023-11-21T04:04:24;8.40;99.90
4056;DHT22;2043;52.184;8.690;2023-11-21T04:06:51;8.50;99.90
4056;DHT22;2043;52.184;8.690;2023-11-21T04:09:20;8.50;99.90
4056;DHT22;2043;52.184;8.690;2023-11-21T04:14:15;8.40;99.90
4056;DHT22;2043;52.184;8.690;2023-11-21T04:16:41;8.50;99.90
4056;DHT22;2043;52.184;8.690;2023-11-21T04:21:37;8.60;99.90
4056;DHT22;2043;52.184;8.690;2023-11-21T04:24:05;8.50;99.90
4056;DHT22;2043;52.184;8.690;2023-11-21T04:26:33;8.50;99.90
4056;DHT22;2043;52.184;8.690;2023-11-21T04:28:59;8.60;99.90
4056;DHT22;2043;52.184;8.690;2023-11-21T04:31:26;8.60;99.90
4056;DHT22;2043;52.184;8.690;2023-11-21T04:33:53;8.60;99.90
4056;DHT22;2043;52.184;8.690;2023-11-21T04:36:20;8.60;99.90
4056;DHT22;2043;52.184;8.690;2023-11-21T04:38:47;8.60;99.90
4056;DHT22;2043;52.184;8.690;2023-11-21T04:41:13;8.60;99.90
4056;DHT22;2043;52.184;8.690;2023-11-21T04:46:09;8.60;99.90
4056;DHT22;2043;52.184;8.690;2023-11-21T04:48:36;8.50;99.90
4056;DHT22;2043;52.184;8.690;2023-11-21T04:51:02;8.60;99.90
4056;DHT22;2043;52.184;8.690;2023-11-21T04:53:30;8.60;99.90
4056;DHT22;2043;52.184;8.690;2023-11-21T04:55:57;8.60;99.90
4056;DHT22;2043;52.184;8.690;2023-11-21T04:58:25;8.50;99.90
4056;DHT22;2043;52.184;8.690;2023-11-21T05:00:52;8.50;99.90
4056;DHT22;2043;52.184;8.690;2023-11-21T05:05:46;8.40;99.90
4056;DHT22;2043;52.184;8.690;2023-11-21T05:08:13;8.50;99.90
4056;DHT22;2043;52.184;8.690;2023-11-21T05:15:37;8.50;99.90
4056;DHT22;2043;52.184;8.690;2023-11-21T05:20:33;8.60;99.90
4056;DHT22;2043;52.184;8.690;2023-11-21T05:23:00;8.60;99.90
4056;DHT22;2043;52.184;8.690;2023-11-21T05:25:27;8.60;99.90
4056;DHT22;2043;52.184;8.690;2023-11-21T05:27:54;8.60;99.90
4056;DHT22;2043;52.184;8.690;2023-11-21T05:30:26;8.60;99.90
4056;DHT22;2043;52.184;8.690;2023-11-21T05:32:52;8.70;99.90
4056;DHT22;2043;52.184;8.690;2023-11-21T05:35:23;8.70;99.90
4056;DHT22;2043;52.184;8.690;2023-11-21T05:37:49;8.70;99.90
4056;DHT22;2043;52.184;8.690;2023-11-21T05:40:16;8.70;99.90
4056;DHT22;2043;52.184;8.690;2023-11-21T05:42:44;8.70;99.90
4056;DHT22;2043;52.184;8.690;2023-11-21T05:45:10;8.70;99.90
4056;DHT22;2043;52.184;8.690;2023-11-21T05:47:42;8.70;99.90
4056;DHT22;2043;52.184;8.690;2023-11-21T05:50:11;8.70;99.90
4056;DHT22;2043;52.184;8.690;2023-11-21T05:52:41;8.70;99.90
4056;DHT22;2043;52.184;8.690;2023-11-21T05:55:09;8.70;99.90
4056;DHT22;2043;52.184;8.690;2023-11-21T05:57:37;8.80;99.90
4056;DHT22;2043;52.184;8.690;2023-11-21T06:02:38;8.70;99.90
4056;DHT22;2043;52.184;8.690;2023-11-21T06:05:07;8.60;99.90
4056;DHT22;2043;52.184;8.690;2023-11-21T06:07:34;8.70;99.90
4056;DHT22;2043;52.184;8.690;2023-11-21T06:10:03;8.60;99.90
4056;DHT22;2043;52.184;8.690;2023-11-21T06:12:32;8.60;99.90
4056;DHT22;2043;52.184;8.690;2023-11-21T06:15:03;8.60;99.90
4056;DHT22;2043;52.184;8.690;2023-11-21T06:17:31;8.60;99.90
4056;DHT22;2043;52.184;8.690;2023-11-21T06:19:58;8.60;99.90
4056;DHT22;2043;52.184;8.690;2023-11-21T06:22:25;8.60;99.90
4056;DHT22;2043;52.184;8.690;2023-11-21T06:24:52;8.70;99.90
4056;DHT22;2043;52.184;8.690;2023-11-21T06:27:19;8.70;99.90
4056;DHT22;2043;52.184;8.690;2023-11-21T06:29:46;8.60;99.90
4056;DHT22;2043;52.184;8.690;2023-11-21T06:32:13;8.60;99.90
4056;DHT22;2043;52.184;8.690;2023-11-21T06:34:43;8.70;99.90
4056;DHT22;2043;52.184;8.690;2023-11-21T06:39:38;8.60;99.90
4056;DHT22;2043;52.184;8.690;2023-11-21T06:42:05;8.60;99.90
4056;DHT22;2043;52.184;8.690;2023-11-21T06:44:32;8.60;99.90
4056;DHT22;2043;52.184;8.690;2023-11-21T06:49:27;8.60;99.90
4056;DHT22;2043;52.184;8.690;2023-11-21T06:51:54;8.60;99.90
4056;DHT22;2043;52.184;8.690;2023-11-21T06:54:21;8.60;99.90
4056;DHT22;2043;52.184;8.690;2023-11-21T06:56:49;8.60;99.90
4056;DHT22;2043;52.184;8.690;2023-11-21T06:59:16;8.60;99.90
4056;DHT22;2043;52.184;8.690;2023-11-21T07:01:42;8.60;99.90
4056;DHT22;2043;52.184;8.690;2023-11-21T07:04:09;8.60;99.90
4056;DHT22;2043;52.184;8.690;2023-11-21T07:09:04;8.60;99.90
4056;DHT22;2043;52.184;8.690;2023-11-21T07:11:31;8.60;99.90
4056;DHT22;2043;52.184;8.690;2023-11-21T07:13:57;8.60;99.90
4056;DHT22;2043;52.184;8.690;2023-11-21T07:16:24;8.70;99.90
4056;DHT22;2043;52.184;8.690;2023-11-21T07:18:52;8.60;99.90
4056;DHT22;2043;52.184;8.690;2023-11-21T07:21:18;8.60;99.90
4056;DHT22;2043;52.184;8.690;2023-11-21T07:23:47;8.60;99.90
4056;DHT22;2043;52.184;8.690;2023-11-21T07:26:14;8.60;99.90
4056;DHT22;2043;52.184;8.690;2023-11-21T07:31:08;8.50;99.90
4056;DHT22;2043;52.184;8.690;2023-11-21T07:33:34;8.50;99.90
4056;DHT22;2043;52.184;8.690;2023-11-21T07:36:01;8.50;99.90
4056;DHT22;2043;52.184;8.690;2023-11-21T07:38:28;8.60;99.90
4056;DHT22;2043;52.184;8.690;2023-11-21T07:40:55;8.60;99.90
4056;DHT22;2043;52.184;8.690;2023-11-21T07:43:21;8.60;99.90
4056;DHT22;2043;52.184;8.690;2023-11-21T07:45:49;8.60;99.90
4056;DHT22;2043;52.184;8.690;2023-11-21T07:50:42;8.60;99.90
4056;DHT22;2043;52.184;8.690;2023-11-21T07:53:09;8.50;99.90
4056;DHT22;2043;52.184;8.690;2023-11-21T07:55:36;8.50;99.90
4056;DHT22;2043;52.184;8.690;2023-11-21T07:58:03;8.50;99.90
4056;DHT22;2043;52.184;8.690;2023-11-21T08:00:30;8.50;99.90
4056;DHT22;2043;52.184;8.690;2023-11-21T08:02:57;8.60;99.90
4056;DHT22;2043;52.184;8.690;2023-11-21T08:05:24;8.50;99.90
4056;DHT22;2043;52.184;8.690;2023-11-21T08:08:02;8.50;99.90
4056;DHT22;2043;52.184;8.690;2023-11-21T08:12:57;8.60;99.90
4056;DHT22;2043;52.184;8.690;2023-11-21T08:15:24;8.60;99.90
4056;DHT22;2043;52.184;8.690;2023-11-21T08:17:51;8.60;99.90
4056;DHT22;2043;52.184;8.690;2023-11-21T08:20:18;8.60;99.90
4056;DHT22;2043;52.184;8.690;2023-11-21T08:22:45;8.60;99.90
4056;DHT22;2043;52.184;8.690;2023-11-21T08:25:14;8.60;99.90
4056;DHT22;2043;52.184;8.690;2023-11-21T08:27:41;8.60;99.90
4056;DHT22;2043;52.184;8.690;2023-11-21T08:30:08;8.60;99.90
4056;DHT22;2043;52.184;8.690;2023-11-21T08:32:35;8.60;99.90
4056;DHT22;2043;52.184;8.690;2023-11-21T08:35:02;8.60;99.90
4056;DHT22;2043;52.184;8.690;2023-11-21T08:37:29;8.60;99.90
4056;DHT22;2043;52.184;8.690;2023-11-21T08:39:58;8.50;99.90
4056;DHT22;2043;52.184;8.690;2023-11-21T08:42:28;8.60;99.90
4056;DHT22;2043;52.184;8.690;2023-11-21T08:44:56;8.50;99.90
4056;DHT22;2043;52.184;8.690;2023-11-21T08:47:27;8.60;99.90
4056;DHT22;2043;52.184;8.690;2023-11-21T08:52:21;8.50;99.90
4056;DHT22;2043;52.184;8.690;2023-11-21T08:54:50;8.40;99.90
4056;DHT22;2043;52.184;8.690;2023-11-21T08:57:23;8.40;99.90
4056;DHT22;2043;52.184;8.690;2023-11-21T08:59:50;8.30;99.90
4056;DHT22;2043;52.184;8.690;2023-11-21T09:02:22;8.30;99.90
4056;DHT22;2043;52.184;8.690;2023-11-21T09:07:19;8.20;99.90
4056;DHT22;2043;52.184;8.690;2023-11-21T09:09:47;8.20;99.90
4056;DHT22;2043;52.184;8.690;2023-11-21T09:12:15;8.20;99.90
4056;DHT22;2043;52.184;8.690;2023-11-21T09:14:43;8.20;99.90
4056;DHT22;2043;52.184;8.690;2023-11-21T09:17:10;8.20;99.90
4056;DHT22;2043;52.184;8.690;2023-11-21T09:19:38;8.20;99.90
4056;DHT22;2043;52.184;8.690;2023-11-21T09:22:05;8.30;99.90
4056;DHT22;2043;52.184;8.690;2023-11-21T09:24:33;8.30;99.90
4056;DHT22;2043;52.184;8.690;2023-11-21T09:27:00;8.20;99.90
4056;DHT22;2043;52.184;8.690;2023-11-21T09:29:27;8.20;99.90
4056;DHT22;2043;52.184;8.690;2023-11-21T09:31:54;8.20;99.90
4056;DHT22;2043;52.184;8.690;2023-11-21T09:34:22;8.20;99.90
4056;DHT22;2043;52.184;8.690;2023-11-21T09:36:49;8.20;99.90
4056;DHT22;2043;52.184;8.690;2023-11-21T09:39:16;8.20;99.90
4056;DHT22;2043;52.184;8.690;2023-11-21T09:41:52;8.10;99.90
4056;DHT22;2043;52.184;8.690;2023-11-21T09:45:01;8.20;99.90
4056;DHT22;2043;52.184;8.690;2023-11-21T09:47:32;8.20;99.90
4056;DHT22;2043;52.184;8.690;2023-11-21T09:50:02;8.00;99.90
4056;DHT22;2043;52.184;8.690;2023-11-21T09:52:32;8.00;99.90
4056;DHT22;2043;52.184;8.690;2023-11-21T09:55:00;8.00;99.90
4056;DHT22;2043;52.184;8.690;2023-11-21T09:57:29;8.00;99.90
4056;DHT22;2043;52.184;8.690;2023-11-21T09:59:58;8.10;99.90
4056;DHT22;2043;52.184;8.690;2023-11-21T10:02:28;7.90;99.90
4056;DHT22;2043;52.184;8.690;2023-11-21T10:04:58;7.90;99.90
4056;DHT22;2043;52.184;8.690;2023-11-21T10:07:28;7.90;99.90
4056;DHT22;2043;52.184;8.690;2023-11-21T10:09:58;7.80;99.90
4056;DHT22;2043;52.184;8.690;2023-11-21T10:12:27;7.80;99.90
4056;DHT22;2043;52.184;8.690;2023-11-21T10:14:58;7.80;99.90
4056;DHT22;2043;52.184;8.690;2023-11-21T10:17:27;7.90;99.90
4056;DHT22;2043;52.184;8.690;2023-11-21T10:19:57;7.80;99.90
4056;DHT22;2043;52.184;8.690;2023-11-21T10:22:25;7.80;99.90
4056;DHT22;2043;52.184;8.690;2023-11-21T10:24:53;7.90;99.90
4056;DHT22;2043;52.184;8.690;2023-11-21T10:27:20;8.00;99.90
4056;DHT22;2043;52.184;8.690;2023-11-21T10:29:47;8.00;99.90
4056;DHT22;2043;52.184;8.690;2023-11-21T10:32:14;8.00;99.90
4056;DHT22;2043;52.184;8.690;2023-11-21T10:34:41;8.00;99.90
4056;DHT22;2043;52.184;8.690;2023-11-21T10:37:14;7.90;99.90
4056;DHT22;2043;52.184;8.690;2023-11-21T10:39:43;7.90;99.90
4056;DHT22;2043;52.184;8.690;2023-11-21T10:42:12;8.00;99.90
4056;DHT22;2043;52.184;8.690;2023-11-21T10:47:08;8.10;99.90
4056;DHT22;2043;52.184;8.690;2023-11-21T10:49:38;8.00;99.90
4056;DHT22;2043;52.184;8.690;2023-11-21T10:52:07;7.90;99.90
4056;DHT22;2043;52.184;8.690;2023-11-21T10:57:04;7.90;99.90
4056;DHT22;2043;52.184;8.690;2023-11-21T10:59:31;7.90;99.90
4056;DHT22;2043;52.184;8.690;2023-11-21T11:02:01;7.80;99.90
4056;DHT22;2043;52.184;8.690;2023-11-21T11:04:30;7.90;99.90
4056;DHT22;2043;52.184;8.690;2023-11-21T11:07:03;7.90;99.90
4056;DHT22;2043;52.184;8.690;2023-11-21T11:09:32;7.90;99.90
4056;DHT22;2043;52.184;8.690;2023-11-21T11:12:02;7.90;99.90
4056;DHT22;2043;52.184;8.690;2023-11-21T11:14:32;7.90;99.90
4056;DHT22;2043;52.184;8.690;2023-11-21T11:16:59;7.90;99.90
4056;DHT22;2043;52.184;8.690;2023-11-21T11:27:44;8.00;99.90
4056;DHT22;2043;52.184;8.690;2023-11-21T11:38:33;7.80;99.90
4056;DHT22;2043;52.184;8.690;2023-11-21T11:41:04;7.60;99.90
4056;DHT22;2043;52.184;8.690;2023-11-21T11:43:32;7.60;99.90
4056;DHT22;2043;52.184;8.690;2023-11-21T11:46:03;7.60;99.90
4056;DHT22;2043;52.184;8.690;2023-11-21T11:48:36;7.60;99.90
4056;DHT22;2043;52.184;8.690;2023-11-21T11:51:06;7.70;99.90
4056;DHT22;2043;52.184;8.690;2023-11-21T11:53:37;7.70;99.90
4056;DHT22;2043;52.184;8.690;2023-11-21T11:56:25;7.80;99.90
4056;DHT22;2043;52.184;8.690;2023-11-21T11:58:54;7.80;99.90
4056;DHT22;2043;52.184;8.690;2023-11-21T12:01:24;7.80;99.90
4056;DHT22;2043;52.184;8.690;2023-11-21T12:06:47;7.70;99.90
4056;DHT22;2043;52.184;8.690;2023-11-21T12:09:21;7.80;99.90
4056;DHT22;2043;52.184;8.690;2023-11-21T12:11:51;7.80;99.90
4056;DHT22;2043;52.184;8.690;2023-11-21T12:14:18;7.80;99.90
4056;DHT22;2043;52.184;8.690;2023-11-21T12:16:45;7.90;99.90
4056;DHT22;2043;52.184;8.690;2023-11-21T12:19:12;8.00;99.90
4056;DHT22;2043;52.184;8.690;2023-11-21T12:21:39;8.00;99.90
4056;DHT22;2043;52.184;8.690;2023-11-21T12:24:10;8.10;99.90
4056;DHT22;2043;52.184;8.690;2023-11-21T12:26:41;8.00;99.90
4056;DHT22;2043;52.184;8.690;2023-11-21T12:29:07;8.10;99.90
4056;DHT22;2043;52.184;8.690;2023-11-21T12:31:35;8.40;99.90
4056;DHT22;2043;52.184;8.690;2023-11-21T12:34:02;8.50;99.90
4056;DHT22;2043;52.184;8.690;2023-11-21T12:38:57;8.50;99.90
4056;DHT22;2043;52.184;8.690;2023-11-21T12:41:23;8.70;99.90
4056;DHT22;2043;52.184;8.690;2023-11-21T12:43:50;8.90;99.90
4056;DHT22;2043;52.184;8.690;2023-11-21T12:46:17;9.10;99.90
4056;DHT22;2043;52.184;8.690;2023-11-21T12:48:45;9.00;99.90
4056;DHT22;2043;52.184;8.690;2023-11-21T12:51:12;8.80;99.90
4056;DHT22;2043;52.184;8.690;2023-11-21T12:53:43;8.90;99.90
4056;DHT22;2043;52.184;8.690;2023-11-21T12:56:11;8.90;99.90
4056;DHT22;2043;52.184;8.690;2023-11-21T12:58:39;8.90;99.90
4056;DHT22;2043;52.184;8.690;2023-11-21T13:01:07;8.90;99.90
4056;DHT22;2043;52.184;8.690;2023-11-21T13:03:39;8.90;99.90
4056;DHT22;2043;52.184;8.690;2023-11-21T13:06:07;8.90;99.90
4056;DHT22;2043;52.184;8.690;2023-11-21T13:08:34;8.90;99.90
4056;DHT22;2043;52.184;8.690;2023-11-21T13:13:29;8.60;99.90
4056;DHT22;2043;52.184;8.690;2023-11-21T13:16:01;8.50;99.90
4056;DHT22;2043;52.184;8.690;2023-11-21T13:18:31;8.40;99.90
4056;DHT22;2043;52.184;8.690;2023-11-21T13:21:03;8.20;99.90
4056;DHT22;2043;52.184;8.690;2023-11-21T13:23:36;8.30;99.90
4056;DHT22;2043;52.184;8.690;2023-11-21T13:26:04;8.10;99.90
4056;DHT22;2043;52.184;8.690;2023-11-21T13:28:34;8.10;99.90
4056;DHT22;2043;52.184;8.690;2023-11-21T13:31:03;8.10;99.90
4056;DHT22;2043;52.184;8.690;2023-11-21T13:33:38;8.10;99.90
4056;DHT22;2043;52.184;8.690;2023-11-21T13:36:06;8.10;99.90
4056;DHT22;2043;52.184;8.690;2023-11-21T13:38:36;8.20;99.90
4056;DHT22;2043;52.184;8.690;2023-11-21T13:41:04;8.10;99.90
4056;DHT22;2043;52.184;8.690;2023-11-21T13:48:42;8.00;99.90
4056;DHT22;2043;52.184;8.690;2023-11-21T13:51:18;8.10;99.90
4056;DHT22;2043;52.184;8.690;2023-11-21T13:53:48;8.00;99.90
4056;DHT22;2043;52.184;8.690;2023-11-21T13:56:17;7.90;99.90
4056;DHT22;2043;52.184;8.690;2023-11-21T13:58:50;8.00;99.90
4056;DHT22;2043;52.184;8.690;2023-11-21T14:01:19;8.00;99.90
4056;DHT22;2043;52.184;8.690;2023-11-21T14:04:00;8.00;99.90
4056;DHT22;2043;52.184;8.690;2023-11-21T14:06:59;8.10;99.90
4056;DHT22;2043;52.184;8.690;2023-11-21T14:09:37;8.00;99.90
4056;DHT22;2043;52.184;8.690;2023-11-21T14:12:11;8.20;99.90
4056;DHT22;2043;52.184;8.690;2023-11-21T14:22:05;7.70;99.90
4056;DHT22;2043;52.184;8.690;2023-11-21T14:24:33;7.70;99.90
4056;DHT22;2043;52.184;8.690;2023-11-21T14:29:27;7.80;99.90
4056;DHT22;2043;52.184;8.690;2023-11-21T14:31:56;7.70;99.90
4056;DHT22;2043;52.184;8.690;2023-11-21T14:34:24;7.70;99.90
4056;DHT22;2043;52.184;8.690;2023-11-21T14:36:53;7.60;99.90
4056;DHT22;2043;52.184;8.690;2023-11-21T14:41:55;7.60;99.90
4056;DHT22;2043;52.184;8.690;2023-11-21T14:49:25;7.60;99.90
4056;DHT22;2043;52.184;8.690;2023-11-21T14:51:54;7.50;99.90
4056;DHT22;2043;52.184;8.690;2023-11-21T14:54:32;7.50;99.90
4056;DHT22;2043;52.184;8.690;2023-11-21T14:57:11;7.50;99.90
4056;DHT22;2043;52.184;8.690;2023-11-21T14:59:45;7.50;99.90
4056;DHT22;2043;52.184;8.690;2023-11-21T15:02:19;7.60;99.90
4056;DHT22;2043;52.184;8.690;2023-11-21T15:05:10;7.50;99.90
4056;DHT22;2043;52.184;8.690;2023-11-21T15:12:41;7.40;99.90
4056;DHT22;2043;52.184;8.690;2023-11-21T15:20:07;7.60;99.90
4056;DHT22;2043;52.184;8.690;2023-11-21T15:22:35;7.50;99.90
4056;DHT22;2043;52.184;8.690;2023-11-21T15:25:02;7.40;99.90
4056;DHT22;2043;52.184;8.690;2023-11-21T15:27:36;7.30;99.90
4056;DHT22;2043;52.184;8.690;2023-11-21T15:30:03;7.40;99.90
4056;DHT22;2043;52.184;8.690;2023-11-21T15:32:30;7.40;99.90
4056;DHT22;2043;52.184;8.690;2023-11-21T15:34:57;7.50;99.90
4056;DHT22;2043;52.184;8.690;2023-11-21T15:37:24;7.50;99.90
4056;DHT22;2043;52.184;8.690;2023-11-21T15:39:54;7.30;99.90
4056;DHT22;2043;52.184;8.690;2023-11-21T15:42:21;7.40;99.90
4056;DHT22;2043;52.184;8.690;2023-11-21T15:47:17;7.30;99.90
4056;DHT22;2043;52.184;8.690;2023-11-21T15:57:13;7.30;99.90
4056;DHT22;2043;52.184;8.690;2023-11-21T15:59:41;7.30;99.90
4056;DHT22;2043;52.184;8.690;2023-11-21T16:02:09;7.30;99.90
4056;DHT22;2043;52.184;8.690;2023-11-21T16:04:39;7.40;99.90
4056;DHT22;2043;52.184;8.690;2023-11-21T16:09:34;7.30;99.90
4056;DHT22;2043;52.184;8.690;2023-11-21T16:12:04;7.30;99.90
4056;DHT22;2043;52.184;8.690;2023-11-21T16:14:36;7.30;99.90
4056;DHT22;2043;52.184;8.690;2023-11-21T16:17:08;7.30;99.90
4056;DHT22;2043;52.184;8.690;2023-11-21T16:19:38;7.40;99.90
4056;DHT22;2043;52.184;8.690;2023-11-21T16:27:00;7.30;99.90
4056;DHT22;2043;52.184;8.690;2023-11-21T16:34:25;7.20;99.90
4056;DHT22;2043;52.184;8.690;2023-11-21T16:39:19;7.20;99.90
4056;DHT22;2043;52.184;8.690;2023-11-21T16:41:48;7.20;99.90
4056;DHT22;2043;52.184;8.690;2023-11-21T16:44:19;7.10;99.90
4056;DHT22;2043;52.184;8.690;2023-11-21T16:46:48;7.20;99.90
4056;DHT22;2043;52.184;8.690;2023-11-21T16:49:23;7.20;99.90
4056;DHT22;2043;52.184;8.690;2023-11-21T16:59:15;7.10;99.90
4056;DHT22;2043;52.184;8.690;2023-11-21T17:01:42;7.00;99.90
4056;DHT22;2043;52.184;8.690;2023-11-21T17:04:12;6.90;99.90
4056;DHT22;2043;52.184;8.690;2023-11-21T17:06:42;6.80;99.90
4056;DHT22;2043;52.184;8.690;2023-11-21T17:09:10;6.80;99.90
4056;DHT22;2043;52.184;8.690;2023-11-21T17:11:37;6.90;99.90
4056;DHT22;2043;52.184;8.690;2023-11-21T17:14:06;6.90;99.90
4056;DHT22;2043;52.184;8.690;2023-11-21T17:16:33;7.00;99.90
4056;DHT22;2043;52.184;8.690;2023-11-21T17:19:00;7.00;99.90
4056;DHT22;2043;52.184;8.690;2023-11-21T17:21:29;7.00;99.90
4056;DHT22;2043;52.184;8.690;2023-11-21T17:26:28;6.90;99.90
4056;DHT22;2043;52.184;8.690;2023-11-21T17:33:50;7.00;99.90
4056;DHT22;2043;52.184;8.690;2023-11-21T17:36:20;6.80;99.90
4056;DHT22;2043;52.184;8.690;2023-11-21T17:41:22;6.80;99.90
4056;DHT22;2043;52.184;8.690;2023-11-21T17:43:50;6.90;99.90
4056;DHT22;2043;52.184;8.690;2023-11-21T17:46:23;6.90;99.90
4056;DHT22;2043;52.184;8.690;2023-11-21T17:48:50;6.70;99.90
4056;DHT22;2043;52.184;8.690;2023-11-21T17:51:20;6.80;99.90
4056;DHT22;2043;52.184;8.690;2023-11-21T17:53:47;6.90;99.90
4056;DHT22;2043;52.184;8.690;2023-11-21T17:56:16;6.90;99.90
4056;DHT22;2043;52.184;8.690;2023-11-21T17:58:44;6.80;99.90
4056;DHT22;2043;52.184;8.690;2023-11-21T18:11:04;6.60;99.90
4056;DHT22;2043;52.184;8.690;2023-11-21T18:13:32;6.60;99.90
4056;DHT22;2043;52.184;8.690;2023-11-21T18:15:58;6.60;99.90
4056;DHT22;2043;52.184;8.690;2023-11-21T18:18:25;6.70;99.90
4056;DHT22;2043;52.184;8.690;2023-11-21T18:20:52;6.80;99.90
4056;DHT22;2043;52.184;8.690;2023-11-21T18:25:46;6.60;99.90
4056;DHT22;2043;52.184;8.690;2023-11-21T18:33:08;6.70;99.90
4056;DHT22;2043;52.184;8.690;2023-11-21T18:35:36;6.70;99.90
4056;DHT22;2043;52.184;8.690;2023-11-21T18:42:58;6.70;99.90
4056;DHT22;2043;52.184;8.690;2023-11-21T18:45:25;6.60;99.90
4056;DHT22;2043;52.184;8.690;2023-11-21T18:47:52;6.60;99.90
4056;DHT22;2043;52.184;8.690;2023-11-21T18:50:18;6.50;99.90
4056;DHT22;2043;52.184;8.690;2023-11-21T18:57:43;6.50;99.90
4056;DHT22;2043;52.184;8.690;2023-11-21T19:00:10;6.50;99.90
4056;DHT22;2043;52.184;8.690;2023-11-21T19:05:07;6.40;99.90
4056;DHT22;2043;52.184;8.690;2023-11-21T19:07:35;6.40;99.90
4056;DHT22;2043;52.184;8.690;2023-11-21T19:10:05;6.50;99.90
4056;DHT22;2043;52.184;8.690;2023-11-21T19:12:32;6.50;99.90
4056;DHT22;2043;52.184;8.690;2023-11-21T19:15:03;6.50;99.90
4056;DHT22;2043;52.184;8.690;2023-11-21T19:24:54;6.50;99.90
4056;DHT22;2043;52.184;8.690;2023-11-21T19:27:21;6.50;99.90
4056;DHT22;2043;52.184;8.690;2023-11-21T19:32:15;6.60;99.90
4056;DHT22;2043;52.184;8.690;2023-11-21T19:34:42;6.60;99.90
4056;DHT22;2043;52.184;8.690;2023-11-21T19:39:37;6.60;99.90
4056;DHT22;2043;52.184;8.690;2023-11-21T19:42:04;6.60;99.90
4056;DHT22;2043;52.184;8.690;2023-11-21T19:44:31;6.50;99.90
4056;DHT22;2043;52.184;8.690;2023-11-21T19:46:59;6.50;99.90
4056;DHT22;2043;52.184;8.690;2023-11-21T19:49:25;6.50;99.90
4056;DHT22;2043;52.184;8.690;2023-11-21T19:54:20;6.40;99.90
4056;DHT22;2043;52.184;8.690;2023-11-21T19:56:47;6.50;99.90
4056;DHT22;2043;52.184;8.690;2023-11-21T19:59:13;6.40;99.90
4056;DHT22;2043;52.184;8.690;2023-11-21T20:01:43;6.30;99.90
4056;DHT22;2043;52.184;8.690;2023-11-21T20:04:10;6.40;99.90
4056;DHT22;2043;52.184;8.690;2023-11-21T20:06:39;6.40;99.90
4056;DHT22;2043;52.184;8.690;2023-11-21T20:09:16;6.40;99.90
4056;DHT22;2043;52.184;8.690;2023-11-21T20:11:43;6.40;99.90
4056;DHT22;2043;52.184;8.690;2023-11-21T20:14:12;6.50;99.90